createdAt,value
2023-03-27T00:02:42.517Z,97843.30
2023-03-27T00:06:41.373Z,97843.00
2023-03-27T00:10:39.441Z,97847.13
2023-03-27T00:14:37.425Z,97846.73
2023-03-27T00:18:36.434Z,97848.84
2023-03-27T00:22:36.348Z,97848.20
2023-03-27T00:26:37.362Z,97837.90
2023-03-27T00:30:35.372Z,97831.98
2023-03-27T00:34:33.458Z,97835.48
2023-03-27T00:38:31.339Z,97833.55
2023-03-27T00:42:29.360Z,97832.91
2023-03-27T00:46:38.382Z,97831.09
2023-03-27T00:50:38.314Z,97829.11
2023-03-27T00:54:38.290Z,97820.52
2023-03-27T00:58:40.298Z,97811.64
2023-03-27T01:02:38.387Z,97814.03
2023-03-27T01:06:36.294Z,97815.20
2023-03-27T01:10:34.259Z,97813.70
2023-03-27T01:14:50.315Z,97812.91
2023-03-27T01:18:54.229Z,97810.71
2023-03-27T01:22:52.331Z,97810.19
2023-03-27T01:27:11.233Z,97816.11
2023-03-27T01:31:37.348Z,97808.98
2023-03-27T01:35:38.314Z,97806.48
2023-03-27T01:39:52.326Z,97792.75
2023-03-27T01:43:53.208Z,97786.15
2023-03-27T01:47:55.269Z,97790.11
2023-03-27T01:52:03.204Z,97787.09
2023-03-27T01:56:05.205Z,97782.95
2023-03-27T02:00:19.587Z,97774.86
2023-03-27T02:04:35.317Z,97775.95
2023-03-27T02:08:42.282Z,97772.62
2023-03-27T02:12:44.251Z,97765.13
2023-03-27T02:16:43.285Z,97765.57
2023-03-27T02:20:41.238Z,97763.09
2023-03-27T02:24:39.210Z,97759.63
2023-03-27T02:28:46.212Z,97757.54
2023-03-27T02:33:09.291Z,97755.02
2023-03-27T02:37:11.239Z,97754.02
2023-03-27T02:41:41.174Z,97754.66
2023-03-27T02:45:58.258Z,97754.21
2023-03-27T02:49:59.147Z,97746.47
2023-03-27T02:54:04.188Z,97746.85
2023-03-27T02:58:06.161Z,97747.08
2023-03-27T03:02:13.182Z,97746.65
2023-03-27T03:06:21.104Z,97746.05
2023-03-27T03:10:19.166Z,97739.90
2023-03-27T03:14:17.096Z,97741.17
2023-03-27T03:18:16.119Z,97738.38
2023-03-27T03:22:14.091Z,97740.16
2023-03-27T03:26:12.188Z,97739.77
2023-03-27T03:30:11.074Z,97735.67
2023-03-27T03:34:21.152Z,97729.61
2023-03-27T03:38:19.104Z,97729.33
2023-03-27T03:42:22.974Z,97724.77
2023-03-27T03:46:22.174Z,97728.22
2023-03-27T03:50:20.103Z,97729.01
2023-03-27T03:54:17.999Z,97728.87
2023-03-27T03:58:16.087Z,97731.41
2023-03-27T04:02:14.095Z,97730.15
2023-03-27T04:06:14.086Z,97729.92
2023-03-27T04:10:15.050Z,97727.68
2023-03-27T04:14:13.053Z,97727.08
2023-03-27T04:18:15.319Z,97727.92
2023-03-27T04:22:14.107Z,97726.72
2023-03-27T04:26:12.097Z,97732.14
2023-03-27T04:30:34.050Z,97732.90
2023-03-27T04:35:01.040Z,97744.66
2023-03-27T04:39:09.991Z,97753.28
2023-03-27T04:43:08.098Z,97752.59
2023-03-27T04:47:08.922Z,97760.30
2023-03-27T04:51:07.968Z,97759.30
2023-03-27T04:55:06.995Z,97760.31
2023-03-27T04:59:05.968Z,97757.23
2023-03-27T05:03:08.140Z,97757.02
2023-03-27T05:07:19.004Z,97762.54
2023-03-27T05:11:16.980Z,97766.84
2023-03-27T05:15:16.010Z,97768.77
2023-03-27T05:19:14.064Z,97766.15
2023-03-27T05:23:16.949Z,97764.88
2023-03-27T05:27:15.023Z,97765.92
2023-03-27T05:31:13.960Z,97767.73
2023-03-27T05:35:25.004Z,97771.01
2023-03-27T05:39:22.872Z,97771.03
2023-03-27T05:43:20.950Z,97771.45
2023-03-27T05:47:18.906Z,97767.68
2023-03-27T05:51:17.938Z,97768.85
2023-03-27T05:55:15.899Z,97772.44
2023-03-27T05:59:14.043Z,97776.24
2023-03-27T06:02:55.116Z,97775.44
2023-03-27T06:06:19.751Z,97780.24
2023-03-27T06:09:43.687Z,97779.24
2023-03-27T06:13:26.217Z,97783.09
2023-03-27T06:16:55.112Z,97786.67
2023-03-27T06:20:38.337Z,97785.52
2023-03-27T06:24:02.332Z,97783.73
2023-03-27T06:27:26.945Z,97783.00
2023-03-27T06:30:51.264Z,97783.28
2023-03-27T06:34:23.983Z,97778.64
2023-03-27T06:38:00.216Z,97775.35
2023-03-27T06:41:24.087Z,97773.39
2023-03-27T06:45:23.574Z,97773.92
2023-03-27T06:49:19.194Z,97773.84
2023-03-27T06:52:43.598Z,97771.27
2023-03-27T06:56:27.316Z,97777.23
2023-03-27T07:00:13.001Z,97776.10
2023-03-27T07:03:59.935Z,97781.52
2023-03-27T07:07:48.023Z,97781.88
2023-03-27T07:11:14.113Z,97780.83
2023-03-27T07:14:41.574Z,97784.90
2023-03-27T07:18:06.768Z,97786.21
2023-03-27T07:21:31.135Z,97790.95
2023-03-27T07:24:55.927Z,97795.52
2023-03-27T07:28:21.173Z,97795.77
2023-03-27T07:31:56.912Z,97794.60
2023-03-27T07:35:44.783Z,97791.13
2023-03-27T07:39:26.999Z,97800.73
2023-03-27T07:42:51.434Z,97807.69
2023-03-27T07:46:17.247Z,97807.43
2023-03-27T07:49:42.064Z,97810.69
2023-03-27T07:53:08.881Z,97819.05
2023-03-27T07:56:35.954Z,97818.98
2023-03-27T08:00:22.865Z,97820.11
2023-03-27T08:03:55.707Z,97815.13
2023-03-27T08:07:21.613Z,97811.78
2023-03-27T08:10:46.227Z,97819.09
2023-03-27T08:14:10.510Z,97824.25
2023-03-27T08:17:36.092Z,97830.17
2023-03-27T08:21:02.149Z,97832.65
2023-03-27T08:24:26.777Z,97836.28
2023-03-27T08:28:03.056Z,97838.36
2023-03-27T08:31:29.369Z,97839.65
2023-03-27T08:34:56.644Z,97837.32
2023-03-27T08:38:26.596Z,97834.39
2023-03-27T08:42:06.912Z,97831.57
2023-03-27T08:45:43.969Z,97829.78
2023-03-27T08:49:17.761Z,97831.50
2023-03-27T08:53:01.139Z,97830.80
2023-03-27T08:56:28.211Z,97831.70
2023-03-27T08:59:57.083Z,97830.08
2023-03-27T09:03:37.360Z,97827.17
2023-03-27T09:07:01.922Z,97826.50
2023-03-27T09:10:36.932Z,97826.39
2023-03-27T09:14:21.459Z,97827.17
2023-03-27T09:17:52.007Z,97829.46
2023-03-27T09:21:27.965Z,97829.95
2023-03-27T09:24:57.854Z,97830.67
2023-03-27T09:28:50.803Z,97826.66
2023-03-27T09:32:17.833Z,97828.27
2023-03-27T09:35:42.332Z,97829.25
2023-03-27T09:39:08.280Z,97830.11
2023-03-27T09:42:37.119Z,97834.23
2023-03-27T09:46:02.315Z,97835.48
2023-03-27T09:49:27.015Z,97835.66
2023-03-27T09:52:52.388Z,97837.13
2023-03-27T09:56:30.874Z,97840.70
2023-03-27T10:00:00.676Z,97843.30
2023-03-27T10:03:24.884Z,97845.85
2023-03-27T10:07:05.625Z,97843.96
2023-03-27T10:10:45.799Z,97846.73
2023-03-27T10:14:20.430Z,97845.95
2023-03-27T10:17:49.509Z,97847.39
2023-03-27T10:21:28.698Z,97847.92
2023-03-27T10:24:54.139Z,97846.48
2023-03-27T10:28:30.958Z,97848.73
2023-03-27T10:32:10.317Z,97848.15
2023-03-27T10:35:45.902Z,97849.04
2023-03-27T10:39:15.419Z,97848.48
2023-03-27T10:43:05.990Z,97846.90
2023-03-27T10:46:32.118Z,97848.98
2023-03-27T10:50:23.261Z,97849.78
2023-03-27T10:53:54.361Z,97853.83
2023-03-27T10:57:26.877Z,97854.77
2023-03-27T11:00:57.699Z,97854.59
2023-03-27T11:04:25.972Z,97848.25
2023-03-27T11:08:04.020Z,97843.46
2023-03-27T11:11:31.837Z,97851.77
2023-03-27T11:15:01.014Z,97850.31
2023-03-27T11:18:32.241Z,97847.31
2023-03-27T11:22:04.562Z,97842.50
2023-03-27T11:25:43.416Z,97846.28
2023-03-27T11:29:32.242Z,97846.36
2023-03-27T11:33:34.842Z,97841.52
2023-03-27T11:37:05.886Z,97844.02
2023-03-27T11:40:37.877Z,97844.65
2023-03-27T11:44:02.361Z,97845.52
2023-03-27T11:48:03.552Z,97842.77
2023-03-27T11:51:32.777Z,97842.33
2023-03-27T11:55:07.607Z,97843.91
2023-03-27T11:58:53.607Z,97839.78
2023-03-27T12:02:21.523Z,97835.52
2023-03-27T12:06:05.634Z,97836.81
2023-03-27T12:09:35.463Z,97832.46
2023-03-27T12:13:41.851Z,97838.33
2023-03-27T12:17:21.803Z,97837.13
2023-03-27T12:21:08.454Z,97836.86
2023-03-27T12:24:59.710Z,97828.64
2023-03-27T12:29:23.490Z,97826.56
2023-03-27T12:33:12.465Z,97831.27
2023-03-27T12:36:39.015Z,97825.91
2023-03-27T12:40:12.724Z,97828.48
2023-03-27T12:43:41.167Z,97839.01
2023-03-27T12:47:26.409Z,97844.89
2023-03-27T12:51:00.798Z,97836.81
2023-03-27T12:54:27.876Z,97854.94
2023-03-27T12:57:54.156Z,97855.90
2023-03-27T13:01:49.064Z,97850.75
2023-03-27T13:05:26.891Z,97857.48
2023-03-27T13:09:12.609Z,97856.59
2023-03-27T13:12:46.466Z,97866.11
2023-03-27T13:16:11.931Z,97867.70
2023-03-27T13:19:49.030Z,97870.52
2023-03-27T13:23:33.798Z,97869.31
2023-03-27T13:27:21.423Z,97874.19
2023-03-27T13:30:49.243Z,97875.98
2023-03-27T13:34:42.615Z,97885.20
2023-03-27T13:38:13.610Z,97889.52
2023-03-27T13:41:58.444Z,97899.59
2023-03-27T13:45:40.897Z,97906.30
2023-03-27T13:49:43.114Z,97918.27
2023-03-27T13:53:12.795Z,97920.76
2023-03-27T13:57:05.471Z,97931.33
2023-03-27T14:00:48.069Z,97931.92
2023-03-27T14:04:27.605Z,97941.17
2023-03-27T14:08:04.100Z,97949.11
2023-03-27T14:11:54.861Z,97945.08
2023-03-27T14:15:43.772Z,97945.30
2023-03-27T14:19:39.238Z,97952.81
2023-03-27T14:23:07.367Z,97952.00
2023-03-27T14:26:49.593Z,97959.29
2023-03-27T14:30:17.102Z,97957.95
2023-03-27T14:34:03.081Z,97962.95
2023-03-27T14:37:36.882Z,97966.35
2023-03-27T14:41:21.252Z,97971.77
2023-03-27T14:44:53.994Z,97979.48
2023-03-27T14:48:41.350Z,97982.17
2023-03-27T14:52:07.870Z,97994.11
2023-03-27T14:55:57.755Z,98003.20
2023-03-27T14:59:48.065Z,98010.54
2023-03-27T15:03:14.725Z,98017.10
2023-03-27T15:06:39.612Z,98019.84
2023-03-27T15:10:07.456Z,98033.55
2023-03-27T15:13:54.448Z,98036.21
2023-03-27T15:17:23.747Z,98044.84
2023-03-27T15:20:47.944Z,98048.09
2023-03-27T15:24:31.970Z,98052.48
2023-03-27T15:27:57.617Z,98055.83
2023-03-27T15:31:22.080Z,98073.23
2023-03-27T15:34:49.179Z,98069.69
2023-03-27T15:38:16.011Z,98078.80
2023-03-27T15:41:42.609Z,98077.03
2023-03-27T15:45:07.242Z,98079.98
2023-03-27T15:48:32.637Z,98075.98
2023-03-27T15:51:57.561Z,98081.20
2023-03-27T15:55:36.303Z,98085.75
2023-03-27T15:59:06.521Z,98085.91
2023-03-27T16:02:30.827Z,98100.50
2023-03-27T16:05:56.772Z,98098.41
2023-03-27T16:09:27.212Z,98100.66
2023-03-27T16:12:52.997Z,98101.48
2023-03-27T16:16:23.092Z,98104.89
2023-03-27T16:19:57.360Z,98109.91
2023-03-27T16:23:21.443Z,98121.90
2023-03-27T16:26:45.365Z,98129.84
2023-03-27T16:30:10.368Z,98134.05
2023-03-27T16:33:34.147Z,98147.30
2023-03-27T16:36:58.044Z,98150.23
2023-03-27T16:40:22.314Z,98154.55
2023-03-27T16:43:48.923Z,98161.34
2023-03-27T16:47:13.401Z,98172.88
2023-03-27T16:50:57.136Z,98172.30
2023-03-27T16:54:55.074Z,98184.73
2023-03-27T16:58:53.085Z,98185.18
2023-03-27T17:02:53.076Z,98192.23
2023-03-27T17:06:51.060Z,98203.42
2023-03-27T17:10:49.066Z,98209.58
2023-03-27T17:14:47.118Z,98211.05
2023-03-27T17:18:45.037Z,98213.02
2023-03-27T17:22:43.178Z,98220.10
2023-03-27T17:26:42.035Z,98222.28
2023-03-27T17:30:46.865Z,98230.73
2023-03-27T17:34:51.041Z,98226.24
2023-03-27T17:38:50.022Z,98234.66
2023-03-27T17:42:48.010Z,98243.22
2023-03-27T17:46:46.141Z,98241.25
2023-03-27T17:50:45.078Z,98250.73
2023-03-27T17:54:43.067Z,98268.55
2023-03-27T17:58:40.970Z,98272.29
2023-03-27T18:02:39.172Z,98283.95
2023-03-27T18:06:36.975Z,98296.77
2023-03-27T18:10:35.525Z,98301.30
2023-03-27T18:14:33.105Z,98307.66
2023-03-27T18:18:31.001Z,98307.45
2023-03-27T18:22:30.984Z,98321.29
2023-03-27T18:26:29.071Z,98327.42
2023-03-27T18:30:32.301Z,98326.41
2023-03-27T18:34:30.040Z,98340.63
2023-03-27T18:38:28.037Z,98345.41
2023-03-27T18:42:26.030Z,98347.63
2023-03-27T18:46:23.944Z,98353.33
2023-03-27T18:50:21.964Z,98370.45
2023-03-27T18:54:19.944Z,98372.84
2023-03-27T18:58:17.926Z,98367.41
2023-03-27T19:02:15.950Z,98361.08
2023-03-27T19:06:14.998Z,98383.62
2023-03-27T19:10:12.980Z,98394.01
2023-03-27T19:14:28.977Z,98417.02
2023-03-27T19:18:58.909Z,98420.27
2023-03-27T19:23:23.541Z,98425.98
2023-03-27T19:27:23.506Z,98437.65
2023-03-27T19:31:23.107Z,98443.04
2023-03-27T19:35:21.951Z,98449.11
2023-03-27T19:39:19.927Z,98453.46
2023-03-27T19:43:17.918Z,98454.73
2023-03-27T19:47:15.984Z,98458.52
2023-03-27T19:51:13.868Z,98467.30
2023-03-27T19:55:14.876Z,98469.64
2023-03-27T19:59:24.120Z,98459.13
2023-03-27T20:03:28.021Z,98473.79
2023-03-27T20:07:25.851Z,98470.42
2023-03-27T20:11:23.931Z,98472.64
2023-03-27T20:15:23.808Z,98481.02
2023-03-27T20:19:23.901Z,98480.48
2023-03-27T20:23:24.831Z,98494.06
2023-03-27T20:27:26.809Z,98482.31
2023-03-27T20:31:28.990Z,98490.73
2023-03-27T20:35:26.803Z,98489.29
2023-03-27T20:39:28.835Z,98483.52
2023-03-27T20:43:29.859Z,98490.58
2023-03-27T20:47:28.797Z,98482.42
2023-03-27T20:51:30.786Z,98494.50
2023-03-27T20:55:34.560Z,98481.67
2023-03-27T20:59:36.750Z,98496.89
2023-03-27T21:03:38.728Z,98496.39
2023-03-27T21:07:36.767Z,98491.44
2023-03-27T21:11:34.781Z,98503.38
2023-03-27T21:15:34.167Z,98497.93
2023-03-27T21:19:31.711Z,98496.76
2023-03-27T21:23:29.847Z,98506.39
2023-03-27T21:28:17.086Z,98511.32
2023-03-27T21:32:15.058Z,98512.17
2023-03-27T21:36:13.243Z,98511.65
2023-03-27T21:40:11.119Z,98523.05
2023-03-27T21:44:08.991Z,98529.48
2023-03-27T21:48:07.222Z,98527.67
2023-03-27T21:52:05.052Z,98527.77
2023-03-27T21:56:03.047Z,98540.31
2023-03-27T22:00:00.948Z,98539.55
2023-03-27T22:04:08.973Z,98540.77
2023-03-27T22:08:06.910Z,98538.22
2023-03-27T22:12:05.086Z,98545.55
2023-03-27T22:16:03.271Z,98547.50
2023-03-27T22:20:00.952Z,98551.58
2023-03-27T22:23:59.038Z,98555.39
2023-03-27T22:27:56.998Z,98557.55
2023-03-27T22:31:54.920Z,98561.31
2023-03-27T22:35:53.051Z,98567.38
2023-03-27T22:39:50.930Z,98568.90
2023-03-27T22:43:49.870Z,98574.25
2023-03-27T22:47:47.911Z,98569.21
2023-03-27T22:51:45.903Z,98578.08
2023-03-27T22:55:43.833Z,98575.69
2023-03-27T22:59:41.862Z,98596.80
2023-03-27T23:03:42.952Z,98594.95
2023-03-27T23:07:40.845Z,98588.26
2023-03-27T23:11:38.859Z,98600.72
2023-03-27T23:15:36.846Z,98597.31
2023-03-27T23:19:34.918Z,98602.48
2023-03-27T23:23:32.844Z,98614.20
2023-03-27T23:27:30.883Z,98619.07
2023-03-27T23:31:33.936Z,98616.19
2023-03-27T23:35:31.866Z,98612.38
2023-03-27T23:39:29.840Z,98625.79
2023-03-27T23:43:27.816Z,98623.56
2023-03-27T23:47:25.859Z,98626.66
2023-03-27T23:51:24.888Z,98621.54
2023-03-27T23:55:22.849Z,98607.23
2023-03-27T23:59:20.848Z,98615.67
